createdAt,value
2022-08-21T00:00:26.743Z,99.90
2022-08-21T00:02:57.968Z,99.90
2022-08-21T00:05:25.830Z,99.90
2022-08-21T00:07:53.105Z,99.90
2022-08-21T00:10:20.506Z,99.90
2022-08-21T00:12:48.174Z,99.90
2022-08-21T00:15:18.238Z,99.90
2022-08-21T00:17:45.506Z,99.90
2022-08-21T00:20:16.896Z,99.90
2022-08-21T00:22:45.078Z,99.90
2022-08-21T00:25:12.587Z,99.90
2022-08-21T00:27:39.865Z,99.90
2022-08-21T00:30:07.863Z,99.90
2022-08-21T00:32:35.243Z,99.90
2022-08-21T00:35:02.547Z,99.90
2022-08-21T00:37:30.481Z,99.90
2022-08-21T00:39:58.300Z,99.90
2022-08-21T00:42:25.742Z,99.90
2022-08-21T00:44:53.077Z,99.90
2022-08-21T00:47:20.412Z,99.90
2022-08-21T00:49:47.698Z,99.90
2022-08-21T00:52:20.522Z,99.90
2022-08-21T00:54:48.310Z,99.90
2022-08-21T00:57:18.937Z,99.90
2022-08-21T00:59:47.657Z,99.90
2022-08-21T01:02:14.979Z,99.90
2022-08-21T01:04:42.262Z,99.90
2022-08-21T01:07:09.769Z,99.90
2022-08-21T01:09:37.329Z,99.90
2022-08-21T01:12:05.082Z,99.90
2022-08-21T01:14:32.432Z,99.90
2022-08-21T01:17:00.086Z,99.90
2022-08-21T01:19:27.422Z,99.90
2022-08-21T01:21:55.341Z,99.90
2022-08-21T01:24:22.706Z,99.90
2022-08-21T01:26:50.397Z,99.90
2022-08-21T01:29:33.443Z,99.90
2022-08-21T01:32:03.663Z,99.90
2022-08-21T01:34:31.122Z,99.90
2022-08-21T01:36:58.383Z,99.90
2022-08-21T01:39:25.778Z,99.90
2022-08-21T01:41:53.020Z,99.90
2022-08-21T01:44:23.409Z,99.90
2022-08-21T01:46:51.070Z,99.90
2022-08-21T01:49:18.425Z,99.90
2022-08-21T01:51:45.689Z,99.90
2022-08-21T01:54:12.982Z,99.90
2022-08-21T01:56:41.543Z,99.90
2022-08-21T01:59:08.904Z,99.90
2022-08-21T02:01:36.505Z,99.90
2022-08-21T02:04:04.108Z,99.90
2022-08-21T02:06:31.379Z,99.90
2022-08-21T02:08:58.642Z,99.90
2022-08-21T02:11:25.914Z,99.90
2022-08-21T02:13:53.213Z,99.90
2022-08-21T02:16:20.525Z,99.90
2022-08-21T02:18:48.647Z,99.90
2022-08-21T02:21:15.984Z,99.90
2022-08-21T02:23:43.349Z,99.90
2022-08-21T02:26:10.853Z,99.90
2022-08-21T02:28:38.968Z,99.90
2022-08-21T02:31:06.429Z,99.90
2022-08-21T02:33:34.554Z,99.90
2022-08-21T02:36:02.298Z,99.90
2022-08-21T02:38:31.599Z,99.90
2022-08-21T02:40:58.925Z,99.90
2022-08-21T02:43:27.005Z,99.90
2022-08-21T02:45:56.428Z,99.90
2022-08-21T02:48:28.500Z,99.90
2022-08-21T02:50:58.286Z,99.90
2022-08-21T02:53:25.933Z,99.90
2022-08-21T02:55:53.940Z,99.90
2022-08-21T02:58:29.282Z,99.90
2022-08-21T03:00:57.173Z,99.90
2022-08-21T03:03:24.538Z,99.90
2022-08-21T03:05:52.041Z,99.90
2022-08-21T03:08:19.348Z,99.90
2022-08-21T03:10:48.482Z,99.90
2022-08-21T03:13:16.077Z,99.90
2022-08-21T03:15:43.625Z,99.90
2022-08-21T03:18:11.763Z,99.90
2022-08-21T03:20:39.994Z,99.90
2022-08-21T03:23:12.558Z,99.90
2022-08-21T03:25:41.765Z,99.90
2022-08-21T03:28:14.204Z,99.90
2022-08-21T03:30:43.098Z,99.90
2022-08-21T03:33:13.136Z,99.90
2022-08-21T03:35:43.885Z,99.90
2022-08-21T03:38:13.558Z,99.90
2022-08-21T03:40:44.294Z,99.90
2022-08-21T03:43:11.635Z,99.90
2022-08-21T03:45:39.238Z,99.90
2022-08-21T03:48:07.480Z,99.90
2022-08-21T03:50:41.032Z,99.90
2022-08-21T03:53:16.969Z,99.90
2022-08-21T03:55:49.088Z,99.90
2022-08-21T03:58:18.121Z,99.90
2022-08-21T04:00:49.847Z,99.90
2022-08-21T04:03:17.281Z,99.90
2022-08-21T04:05:46.290Z,99.90
2022-08-21T04:08:13.952Z,99.90
2022-08-21T04:10:44.660Z,99.90
2022-08-21T04:13:11.928Z,99.90
2022-08-21T04:15:39.265Z,99.90
2022-08-21T04:18:06.627Z,99.90
2022-08-21T04:20:34.441Z,99.90
2022-08-21T04:23:02.766Z,99.90
2022-08-21T04:25:30.057Z,99.90
2022-08-21T04:27:57.732Z,99.90
2022-08-21T04:30:28.546Z,99.90
2022-08-21T04:32:56.717Z,99.90
2022-08-21T04:35:24.364Z,99.90
2022-08-21T04:37:51.673Z,99.90
2022-08-21T04:40:20.720Z,99.90
2022-08-21T04:42:52.621Z,99.90
2022-08-21T04:45:37.332Z,99.90
2022-08-21T04:48:10.712Z,99.90
2022-08-21T04:50:42.740Z,99.90
2022-08-21T04:53:12.931Z,99.90
2022-08-21T04:55:40.793Z,99.90
2022-08-21T04:58:08.488Z,99.90
2022-08-21T05:00:35.797Z,99.90
2022-08-21T05:03:03.135Z,99.90
2022-08-21T05:05:30.397Z,99.90
2022-08-21T05:07:58.563Z,99.90
2022-08-21T05:10:26.173Z,99.90
2022-08-21T05:12:53.813Z,99.90
2022-08-21T05:15:21.797Z,99.90
2022-08-21T05:17:53.624Z,99.90
2022-08-21T05:20:28.467Z,99.90
2022-08-21T05:22:55.846Z,99.90
2022-08-21T05:25:23.848Z,99.90
2022-08-21T05:27:52.148Z,99.90
2022-08-21T05:30:20.617Z,99.90
2022-08-21T05:32:48.549Z,99.90
2022-08-21T05:35:15.996Z,99.90
2022-08-21T05:37:43.293Z,99.90
2022-08-21T05:40:21.324Z,99.90
2022-08-21T05:42:54.528Z,99.90
2022-08-21T05:45:42.865Z,99.90
2022-08-21T05:48:12.449Z,99.90
2022-08-21T05:50:40.109Z,99.90
2022-08-21T05:53:07.985Z,99.90
2022-08-21T05:55:40.209Z,99.90
2022-08-21T05:58:10.136Z,99.90
2022-08-21T06:00:37.406Z,99.90
2022-08-21T06:03:05.467Z,99.90
2022-08-21T06:05:36.398Z,99.90
2022-08-21T06:08:05.112Z,99.90
2022-08-21T06:10:32.461Z,99.90
2022-08-21T06:12:59.919Z,99.90
2022-08-21T06:15:30.404Z,99.90
2022-08-21T06:17:57.686Z,99.90
2022-08-21T06:20:24.961Z,99.90
2022-08-21T06:22:52.380Z,99.90
2022-08-21T06:25:20.197Z,99.90
2022-08-21T06:27:47.930Z,99.90
2022-08-21T06:30:15.269Z,99.90
2022-08-21T06:32:42.608Z,99.90
2022-08-21T06:35:10.448Z,99.90
2022-08-21T06:37:37.718Z,99.90
2022-08-21T06:40:06.320Z,99.90
2022-08-21T06:42:41.418Z,99.90
2022-08-21T06:45:10.786Z,99.90
2022-08-21T06:47:38.317Z,99.90
2022-08-21T06:50:08.363Z,99.90
2022-08-21T06:52:38.795Z,99.90
2022-08-21T06:55:07.441Z,99.90
2022-08-21T06:57:34.834Z,99.90
2022-08-21T07:00:05.070Z,99.90
2022-08-21T07:02:34.097Z,99.90
2022-08-21T07:05:01.559Z,99.90
2022-08-21T07:07:29.448Z,99.90
2022-08-21T07:09:56.714Z,99.90
2022-08-21T07:12:24.023Z,99.90
2022-08-21T07:14:51.297Z,99.90
2022-08-21T07:17:18.549Z,99.90
2022-08-21T07:19:45.829Z,99.90
2022-08-21T07:22:13.100Z,99.90
2022-08-21T07:24:40.347Z,99.90
2022-08-21T07:27:10.068Z,99.90
2022-08-21T07:29:37.564Z,99.90
2022-08-21T07:32:05.614Z,99.90
2022-08-21T07:34:32.915Z,99.90
2022-08-21T07:37:00.184Z,99.90
2022-08-21T07:39:37.585Z,99.90
2022-08-21T07:42:08.177Z,99.90
2022-08-21T07:44:35.842Z,99.90
2022-08-21T07:47:03.118Z,99.90
2022-08-21T07:49:30.414Z,99.90
2022-08-21T07:51:57.883Z,99.90
2022-08-21T07:54:33.677Z,99.90
2022-08-21T07:57:01.669Z,99.90
2022-08-21T07:59:29.369Z,99.90
2022-08-21T08:01:57.539Z,99.90
2022-08-21T08:04:26.561Z,99.90
2022-08-21T08:06:54.267Z,99.90
2022-08-21T08:09:21.522Z,99.90
2022-08-21T08:11:48.768Z,99.90
2022-08-21T08:14:16.646Z,99.90
2022-08-21T08:16:43.930Z,99.90
2022-08-21T08:19:11.357Z,99.90
2022-08-21T08:21:39.793Z,99.90
2022-08-21T08:24:19.252Z,99.90
2022-08-21T08:26:53.635Z,99.90
2022-08-21T08:29:23.047Z,99.90
2022-08-21T08:31:50.329Z,99.90
2022-08-21T08:34:23.599Z,99.90
2022-08-21T08:36:53.359Z,99.90
2022-08-21T08:39:26.568Z,99.90
2022-08-21T08:42:33.081Z,99.90
2022-08-21T08:45:08.689Z,99.90
2022-08-21T08:47:38.367Z,99.90
2022-08-21T08:50:12.377Z,99.90
2022-08-21T08:52:52.389Z,99.90
2022-08-21T08:55:27.067Z,99.90
2022-08-21T08:57:54.810Z,99.90
2022-08-21T09:00:22.711Z,99.90
2022-08-21T09:02:50.778Z,99.90
2022-08-21T09:05:44.070Z,99.90
2022-08-21T09:08:26.723Z,99.90
2022-08-21T09:11:04.668Z,99.90
2022-08-21T09:13:55.028Z,99.90
2022-08-21T09:16:30.394Z,99.90
2022-08-21T09:19:18.844Z,99.90
2022-08-21T09:22:21.100Z,99.90
2022-08-21T09:24:55.395Z,99.90
2022-08-21T09:27:23.293Z,99.90
2022-08-21T09:29:53.085Z,99.90
2022-08-21T09:32:37.237Z,99.90
2022-08-21T09:35:10.013Z,99.90
2022-08-21T09:38:04.106Z,99.90
2022-08-21T09:40:44.445Z,99.90
2022-08-21T09:43:14.762Z,99.90
2022-08-21T09:45:42.933Z,99.90
2022-08-21T09:48:13.710Z,99.90
2022-08-21T09:50:41.304Z,99.90
2022-08-21T09:53:23.737Z,99.90
2022-08-21T09:56:21.532Z,99.90
2022-08-21T09:58:52.557Z,99.90
2022-08-21T10:01:22.167Z,99.90
2022-08-21T10:04:02.449Z,99.90
2022-08-21T10:06:29.757Z,99.90
2022-08-21T10:09:08.388Z,99.90
2022-08-21T10:11:36.038Z,99.90
2022-08-21T10:14:22.280Z,99.90
2022-08-21T10:17:02.809Z,99.90
2022-08-21T10:19:52.346Z,99.90
2022-08-21T10:22:44.464Z,99.90
2022-08-21T10:26:13.923Z,99.90
2022-08-21T10:29:11.754Z,99.90
2022-08-21T10:32:26.532Z,99.90
2022-08-21T10:35:18.126Z,99.90
2022-08-21T10:38:48.682Z,99.90
2022-08-21T10:41:44.905Z,99.90
2022-08-21T10:44:33.590Z,99.90
2022-08-21T10:47:12.325Z,99.90
2022-08-21T10:50:06.393Z,99.90
2022-08-21T10:52:39.784Z,99.90
2022-08-21T10:55:18.170Z,99.90
2022-08-21T10:58:07.632Z,99.90
2022-08-21T11:00:48.611Z,99.90
2022-08-21T11:03:33.542Z,99.90
2022-08-21T11:06:10.029Z,99.90
2022-08-21T11:08:47.016Z,99.90
2022-08-21T11:11:35.887Z,99.90
2022-08-21T11:14:21.130Z,99.90
2022-08-21T11:17:02.110Z,99.90
2022-08-21T11:19:42.236Z,99.90
2022-08-21T11:22:15.073Z,99.90
2022-08-21T11:25:01.767Z,99.90
2022-08-21T11:27:47.413Z,99.90
2022-08-21T11:30:15.073Z,99.90
2022-08-21T11:32:58.009Z,99.90
2022-08-21T11:35:52.408Z,99.90
2022-08-21T11:38:41.709Z,99.90
2022-08-21T11:41:26.235Z,99.90
2022-08-21T11:44:20.709Z,99.90
2022-08-21T11:46:59.705Z,99.90
2022-08-21T11:49:48.168Z,99.90
2022-08-21T11:52:21.607Z,99.90
2022-08-21T11:55:06.386Z,99.90
2022-08-21T11:57:59.964Z,99.90
2022-08-21T12:00:34.845Z,99.90
2022-08-21T12:03:26.556Z,99.90
2022-08-21T12:05:59.790Z,99.90
2022-08-21T12:08:38.244Z,99.90
2022-08-21T12:11:17.524Z,99.90
2022-08-21T12:13:57.527Z,99.90
2022-08-21T12:16:38.681Z,99.90
2022-08-21T12:19:10.107Z,99.90
2022-08-21T12:21:56.141Z,99.90
2022-08-21T12:24:29.157Z,99.90
2022-08-21T12:26:57.353Z,97.10
2022-08-21T12:29:27.537Z,98.80
2022-08-21T12:32:11.616Z,98.20
2022-08-21T12:34:49.320Z,99.00
2022-08-21T12:37:38.283Z,99.90
2022-08-21T12:40:10.804Z,99.90
2022-08-21T12:42:56.649Z,98.70
2022-08-21T12:45:34.084Z,99.90
2022-08-21T12:48:03.042Z,99.90
2022-08-21T12:50:45.277Z,99.30
2022-08-21T12:53:35.715Z,98.70
2022-08-21T12:56:04.675Z,98.50
2022-08-21T12:58:31.986Z,98.20
2022-08-21T13:01:08.189Z,99.50
2022-08-21T13:03:36.581Z,98.90
2022-08-21T13:06:07.301Z,98.60
2022-08-21T13:08:40.133Z,99.90
2022-08-21T13:11:15.261Z,99.90
2022-08-21T13:13:50.067Z,99.90
2022-08-21T13:16:23.721Z,99.90
2022-08-21T13:19:02.588Z,99.90
2022-08-21T13:21:31.869Z,99.90
2022-08-21T13:24:41.446Z,99.90
2022-08-21T13:27:23.752Z,99.90
2022-08-21T13:30:12.094Z,99.90
2022-08-21T13:32:44.489Z,99.90
2022-08-21T13:35:17.017Z,99.90
2022-08-21T13:37:45.173Z,99.90
2022-08-21T13:40:15.996Z,99.90
2022-08-21T13:42:44.419Z,99.90
2022-08-21T13:45:34.722Z,99.90
2022-08-21T13:48:06.216Z,99.90
2022-08-21T13:50:35.640Z,99.90
2022-08-21T13:53:05.217Z,99.90
2022-08-21T13:55:41.242Z,99.90
2022-08-21T13:58:09.280Z,99.90
2022-08-21T14:00:45.487Z,99.90
2022-08-21T14:03:12.859Z,99.90
2022-08-21T14:05:46.666Z,99.70
2022-08-21T14:08:15.523Z,98.70
2022-08-21T14:10:46.724Z,99.90
2022-08-21T14:13:31.775Z,98.50
2022-08-21T14:16:02.465Z,95.60
2022-08-21T14:18:29.794Z,98.30
2022-08-21T14:21:07.266Z,98.60
2022-08-21T14:23:34.510Z,95.70
2022-08-21T14:26:03.257Z,94.80
2022-08-21T14:28:35.327Z,97.60
2022-08-21T14:31:17.339Z,97.70
2022-08-21T14:33:44.586Z,96.80
2022-08-21T14:36:11.871Z,97.30
2022-08-21T14:38:41.112Z,96.80
2022-08-21T14:41:18.795Z,98.60
2022-08-21T14:43:46.847Z,99.30
2022-08-21T14:46:14.822Z,99.70
2022-08-21T14:48:42.075Z,98.50
2022-08-21T14:51:09.679Z,98.90
2022-08-21T14:53:37.015Z,98.70
2022-08-21T14:56:07.794Z,98.60
2022-08-21T14:58:44.094Z,97.20
2022-08-21T15:01:12.598Z,97.50
2022-08-21T15:03:40.065Z,98.40
2022-08-21T15:06:07.800Z,94.70
2022-08-21T15:08:35.143Z,93.60
2022-08-21T15:11:20.492Z,95.40
2022-08-21T15:13:53.883Z,95.20
2022-08-21T15:16:21.157Z,97.30
2022-08-21T15:18:48.434Z,97.00
2022-08-21T15:21:15.792Z,95.40
2022-08-21T15:23:43.693Z,96.40
2022-08-21T15:26:11.358Z,98.10
2022-08-21T15:28:39.098Z,98.30
2022-08-21T15:31:06.930Z,98.20
2022-08-21T15:33:34.405Z,97.30
2022-08-21T15:36:01.711Z,98.40
2022-08-21T15:38:29.011Z,98.20
2022-08-21T15:40:56.326Z,96.90
2022-08-21T15:43:30.051Z,96.70
2022-08-21T15:46:00.991Z,97.40
2022-08-21T15:48:28.765Z,97.10
2022-08-21T15:50:56.037Z,95.10
2022-08-21T15:53:23.469Z,94.10
2022-08-21T15:55:50.779Z,95.80
2022-08-21T15:58:18.245Z,95.50
2022-08-21T16:00:45.640Z,95.00
2022-08-21T16:03:17.474Z,93.30
2022-08-21T16:05:45.465Z,94.30
2022-08-21T16:08:13.034Z,96.00
2022-08-21T16:10:40.451Z,95.90
2022-08-21T16:13:12.743Z,95.40
2022-08-21T16:15:40.735Z,93.60
2022-08-21T16:18:07.995Z,94.30
2022-08-21T16:20:35.295Z,94.50
2022-08-21T16:23:02.803Z,94.70
2022-08-21T16:25:30.116Z,94.30
2022-08-21T16:28:01.624Z,95.40
2022-08-21T16:30:29.484Z,94.20
2022-08-21T16:32:57.037Z,93.90
2022-08-21T16:35:25.146Z,93.50
2022-08-21T16:37:53.452Z,93.10
2022-08-21T16:40:23.234Z,92.80
2022-08-21T16:42:50.811Z,92.20
2022-08-21T16:45:19.179Z,92.30
2022-08-21T16:47:46.603Z,91.80
2022-08-21T16:50:16.325Z,92.00
2022-08-21T16:52:43.958Z,91.70
2022-08-21T16:55:11.242Z,92.30
2022-08-21T16:57:38.531Z,92.60
2022-08-21T17:00:12.911Z,92.50
2022-08-21T17:02:45.292Z,95.00
2022-08-21T17:05:14.051Z,94.20
2022-08-21T17:07:42.050Z,95.60
2022-08-21T17:10:10.225Z,97.80
2022-08-21T17:12:37.595Z,97.20
2022-08-21T17:15:13.223Z,96.50
2022-08-21T17:17:40.507Z,96.30
2022-08-21T17:20:08.594Z,95.40
2022-08-21T17:22:35.876Z,94.40
2022-08-21T17:25:03.302Z,94.90
2022-08-21T17:27:30.566Z,95.50
2022-08-21T17:29:57.874Z,96.70
2022-08-21T17:32:25.229Z,97.20
2022-08-21T17:34:52.567Z,98.00
2022-08-21T17:37:20.970Z,97.90
2022-08-21T17:39:48.287Z,96.50
2022-08-21T17:42:15.811Z,97.20
2022-08-21T17:44:44.994Z,97.10
2022-08-21T17:47:13.068Z,95.80
2022-08-21T17:49:40.428Z,96.30
2022-08-21T17:52:07.896Z,96.20
2022-08-21T17:54:36.067Z,97.50
2022-08-21T17:57:03.441Z,96.30
2022-08-21T17:59:31.165Z,96.90
2022-08-21T18:02:01.434Z,97.90
2022-08-21T18:04:29.755Z,97.00
2022-08-21T18:06:57.085Z,96.90
2022-08-21T18:09:28.065Z,97.30
2022-08-21T18:11:56.474Z,96.40
2022-08-21T18:14:28.051Z,96.50
2022-08-21T18:16:56.246Z,97.30
2022-08-21T18:19:26.049Z,97.60
2022-08-21T18:21:54.062Z,97.70
2022-08-21T18:24:21.891Z,98.50
2022-08-21T18:26:49.823Z,98.70
2022-08-21T18:29:18.047Z,98.70
2022-08-21T18:31:46.343Z,98.70
2022-08-21T18:34:20.101Z,98.90
2022-08-21T18:36:48.354Z,99.50
2022-08-21T18:39:35.544Z,99.20
2022-08-21T18:42:04.117Z,99.90
2022-08-21T18:44:31.644Z,99.90
2022-08-21T18:47:01.435Z,99.90
2022-08-21T18:49:28.881Z,99.90
2022-08-21T18:51:56.603Z,99.90
2022-08-21T18:54:24.702Z,99.90
2022-08-21T18:56:54.923Z,99.90
2022-08-21T18:59:22.351Z,99.90
2022-08-21T19:01:50.290Z,99.90
2022-08-21T19:04:41.046Z,99.90
2022-08-21T19:07:04.961Z,99.90
2022-08-21T19:09:32.261Z,99.90
2022-08-21T19:11:59.534Z,99.90
2022-08-21T19:14:28.196Z,99.90
2022-08-21T19:16:56.544Z,99.90
2022-08-21T19:19:23.810Z,99.90
2022-08-21T19:21:51.200Z,99.90
2022-08-21T19:24:23.183Z,99.90
2022-08-21T19:26:50.695Z,99.90
2022-08-21T19:29:34.572Z,99.90
2022-08-21T19:32:06.450Z,99.90
2022-08-21T19:34:34.811Z,99.90
2022-08-21T19:37:01.990Z,99.90
2022-08-21T19:39:30.886Z,99.90
2022-08-21T19:41:58.795Z,99.90
2022-08-21T19:44:28.244Z,99.90
2022-08-21T19:46:57.853Z,99.90
2022-08-21T19:49:28.337Z,99.90
2022-08-21T19:51:55.717Z,99.90
2022-08-21T19:54:25.707Z,99.90
2022-08-21T19:56:55.214Z,99.90
2022-08-21T19:59:24.703Z,99.90
2022-08-21T20:01:52.383Z,99.90
2022-08-21T20:04:19.766Z,99.90
2022-08-21T20:06:47.197Z,99.90
2022-08-21T20:09:14.547Z,99.90
2022-08-21T20:11:44.287Z,99.90
2022-08-21T20:14:12.810Z,99.90
2022-08-21T20:16:41.528Z,99.90
2022-08-21T20:19:08.924Z,99.90
2022-08-21T20:24:24.239Z,99.90
2022-08-21T20:26:54.867Z,99.90
2022-08-21T20:29:24.510Z,99.90
2022-08-21T20:31:57.429Z,99.90
2022-08-21T20:34:25.542Z,99.90
2022-08-21T20:36:53.301Z,99.90
2022-08-21T20:39:23.964Z,99.90
2022-08-21T20:41:52.595Z,99.90
2022-08-21T20:44:19.877Z,99.90
2022-08-21T20:46:47.150Z,99.90
2022-08-21T20:49:17.466Z,99.90
2022-08-21T20:51:46.291Z,99.90
2022-08-21T20:54:21.590Z,99.90
2022-08-21T20:56:56.562Z,99.90
2022-08-21T20:59:33.853Z,99.90
2022-08-21T21:02:16.513Z,99.90
2022-08-21T21:04:51.617Z,99.90
2022-08-21T21:07:24.303Z,99.90
2022-08-21T21:09:52.166Z,99.90
2022-08-21T21:15:15.311Z,99.90
2022-08-21T21:18:06.962Z,99.90
2022-08-21T21:20:51.655Z,99.90
2022-08-21T21:23:32.451Z,99.90
2022-08-21T21:26:06.353Z,99.90
2022-08-21T21:28:45.787Z,99.90
2022-08-21T21:31:13.854Z,99.90
2022-08-21T21:33:41.189Z,99.90
2022-08-21T21:36:19.837Z,99.90
2022-08-21T21:39:16.614Z,99.90
2022-08-21T21:42:02.557Z,99.90
2022-08-21T21:44:34.614Z,99.90
2022-08-21T21:47:15.635Z,99.90
2022-08-21T21:49:42.862Z,99.90
2022-08-21T21:52:17.385Z,99.90
2022-08-21T21:55:05.933Z,99.90
2022-08-21T21:57:57.569Z,99.90
2022-08-21T22:00:26.722Z,99.90
2022-08-21T22:03:17.302Z,99.90
2022-08-21T22:05:53.207Z,99.90
2022-08-21T22:08:48.875Z,99.90
2022-08-21T22:11:41.912Z,99.90
2022-08-21T22:14:13.869Z,99.90
2022-08-21T22:16:41.252Z,99.90
2022-08-21T22:19:30.691Z,99.90
2022-08-21T22:22:17.500Z,99.90
2022-08-21T22:24:48.962Z,99.90
2022-08-21T22:27:21.811Z,99.90
2022-08-21T22:29:52.653Z,99.90
2022-08-21T22:32:46.052Z,99.90
2022-08-21T22:35:25.425Z,99.90
2022-08-21T22:37:55.519Z,99.90
2022-08-21T22:40:26.183Z,99.90
2022-08-21T22:43:03.753Z,99.90
2022-08-21T22:46:00.700Z,99.90
2022-08-21T22:48:32.725Z,99.90
2022-08-21T22:51:11.687Z,99.90
2022-08-21T22:53:41.795Z,99.90
2022-08-21T22:56:10.204Z,99.90
2022-08-21T22:58:58.338Z,99.90
2022-08-21T23:01:32.677Z,99.90
2022-08-21T23:04:12.858Z,99.90
2022-08-21T23:06:52.621Z,99.90
2022-08-21T23:09:40.434Z,99.90
2022-08-21T23:15:18.197Z,99.90
2022-08-21T23:18:27.172Z,99.90
2022-08-21T23:21:12.333Z,99.90
2022-08-21T23:23:58.114Z,99.90
2022-08-21T23:26:29.523Z,99.90
2022-08-21T23:29:08.271Z,99.90
2022-08-21T23:31:54.582Z,99.90
2022-08-21T23:34:40.689Z,99.90
2022-08-21T23:37:49.235Z,99.90
2022-08-21T23:40:30.762Z,99.90
2022-08-21T23:43:43.280Z,99.90
2022-08-21T23:46:16.436Z,99.90
2022-08-21T23:49:21.950Z,99.90
2022-08-21T23:52:12.494Z,99.90
2022-08-21T23:54:45.758Z,99.90
2022-08-21T23:57:34.244Z,99.90
